Time;durP1;ratioP1;P1;durP2;ratioP2;P2;SDS_P1;SDS_P2;PMS_P1;PMS_P2;Temp;Humidity;BMP_temperature;BMP_pressure;BME280_temperature;BME280_humidity;BME280_pressure;Samples;Min_cycle;Max_cycle;Signal;HPM_P1;HPM_P2
2022/04/18 00:00:43;;;;;;;15.30;12.32;;;8.70;66.60;;;;;;5018847;28;20776;-55
2022/04/18 00:03:09;;;;;;;14.82;12.55;;;8.70;67.20;;;;;;5021853;28;20073;-55
2022/04/18 00:05:35;;;;;;;17.63;12.93;;;8.70;66.80;;;;;;5020053;28;20148;-57
2022/04/18 00:08:03;;;;;;;15.73;12.30;;;8.60;69.30;;;;;;5021201;28;20764;-57
2022/04/18 00:10:29;;;;;;;15.63;12.43;;;8.70;67.00;;;;;;5020910;28;20559;-57
2022/04/18 00:12:55;;;;;;;15.50;12.93;;;8.70;66.70;;;;;;5004708;28;20049;-57
2022/04/18 00:15:23;;;;;;;15.95;12.05;;;8.60;67.20;;;;;;5016946;28;20054;-54
2022/04/18 00:17:49;;;;;;;17.23;12.75;;;8.60;66.80;;;;;;5004416;28;20049;-53
2022/04/18 00:20:15;;;;;;;14.80;12.27;;;8.60;67.50;;;;;;5017111;28;20054;-56
2022/04/18 00:22:42;;;;;;;15.70;12.63;;;8.50;68.20;;;;;;5006445;28;20041;-56
2022/04/18 00:25:08;;;;;;;16.75;11.95;;;8.50;70.30;;;;;;5019697;28;20046;-54
2022/04/18 00:27:34;;;;;;;14.02;12.52;;;8.50;67.60;;;;;;5001587;28;20053;-57
2022/04/18 00:30:01;;;;;;;15.20;12.32;;;8.50;67.30;;;;;;5020233;28;20049;-57
2022/04/18 00:32:28;;;;;;;14.73;11.65;;;8.40;67.70;;;;;;5021644;28;20049;-56
2022/04/18 00:34:54;;;;;;;16.83;13.07;;;8.40;67.70;;;;;;5020915;28;20059;-56
2022/04/18 00:37:20;;;;;;;15.00;12.10;;;8.40;68.30;;;;;;5017752;28;20128;-56
2022/04/18 00:39:46;;;;;;;15.23;12.18;;;8.40;67.00;;;;;;5019770;28;20403;-57
2022/04/18 00:42:13;;;;;;;15.82;12.63;;;8.40;67.10;;;;;;5017851;28;20061;-56
2022/04/18 00:44:39;;;;;;;14.80;12.13;;;8.30;67.40;;;;;;5023516;28;20045;-56
2022/04/18 00:47:05;;;;;;;16.25;12.40;;;8.30;69.60;;;;;;5017015;28;20396;-57
2022/04/18 00:49:33;;;;;;;16.25;12.80;;;8.40;67.50;;;;;;5017726;28;20445;-56
2022/04/18 00:52:01;;;;;;;17.00;13.18;;;8.30;67.00;;;;;;5020433;28;20144;-56
2022/04/18 00:54:27;;;;;;;20.33;13.65;;;8.30;67.90;;;;;;5022157;28;20045;-56
2022/04/18 00:56:54;;;;;;;17.52;12.70;;;8.30;67.50;;;;;;5005085;28;20158;-56
2022/04/18 00:59:21;;;;;;;16.52;13.55;;;8.20;68.10;;;;;;5017353;28;20681;-56
2022/04/18 01:01:48;;;;;;;16.23;12.75;;;8.20;67.90;;;;;;5028989;28;20080;-56
2022/04/18 01:04:14;;;;;;;16.42;13.30;;;8.20;67.30;;;;;;4999960;28;20049;-56
2022/04/18 01:06:41;;;;;;;16.95;13.30;;;8.10;67.70;;;;;;5021325;28;20045;-56
2022/04/18 01:09:07;;;;;;;16.42;12.75;;;8.10;67.30;;;;;;5018870;28;20053;-57
2022/04/18 01:11:33;;;;;;;17.80;12.75;;;8.10;67.40;;;;;;5016549;28;20048;-57
2022/04/18 01:14:17;;;;;;;15.93;13.38;;;8.10;67.20;;;;;;5018803;28;20072;-56
2022/04/18 01:16:50;;;;;;;;;;;8.10;69.30;;;;;;5020833;28;20037;-55
2022/04/18 01:19:19;;;;;;;17.23;13.38;;;8.00;69.70;;;;;;5018008;28;19983;-56
2022/04/18 01:22:01;;;;;;;16.42;13.30;;;7.90;69.60;;;;;;5002755;28;20060;-57
2022/04/18 01:30:19;;;;;;;16.92;13.77;;;7.70;72.80;;;;;;5022489;28;20152;-56
2022/04/18 01:32:46;;;;;;;18.67;13.95;;;7.70;72.90;;;;;;5022018;28;20058;-55
2022/04/18 01:35:12;;;;;;;19.15;14.05;;;7.70;74.50;;;;;;5021854;28;20140;-57
2022/04/18 01:37:40;;;;;;;22.60;14.55;;;7.60;74.40;;;;;;5022015;28;20033;-54
2022/04/18 01:40:09;;;;;;;20.70;14.75;;;7.60;75.70;;;;;;5025146;28;20783;-56
2022/04/18 01:42:35;;;;;;;20.17;14.80;;;7.60;76.90;;;;;;5023266;28;20053;-56
2022/04/18 01:45:01;;;;;;;19.40;14.35;;;7.60;77.60;;;;;;4990295;28;20045;-56
2022/04/18 01:47:28;;;;;;;20.85;15.02;;;7.60;77.20;;;;;;5004983;28;20053;-56
2022/04/18 01:49:54;;;;;;;19.02;14.43;;;7.60;79.70;;;;;;5021160;28;20057;-56
2022/04/18 01:52:21;;;;;;;21.98;16.05;;;7.60;78.80;;;;;;5007404;28;20053;-56
2022/04/18 01:54:47;;;;;;;19.23;15.10;;;7.50;79.00;;;;;;5022711;28;20099;-55
2022/04/18 01:57:15;;;;;;;21.13;15.38;;;7.50;80.00;;;;;;5022717;28;20060;-55
2022/04/18 01:59:42;;;;;;;20.60;15.30;;;7.50;79.50;;;;;;4975653;28;20568;-56
2022/04/18 02:02:10;;;;;;;20.08;13.95;;;7.50;80.00;;;;;;4989173;28;20068;-56
2022/04/18 02:04:36;;;;;;;17.42;13.80;;;7.50;80.90;;;;;;5022100;28;20084;-55
2022/04/18 02:07:06;;;;;;;17.15;14.90;;;7.40;82.70;;;;;;5005769;28;20116;-56
2022/04/18 02:09:32;;;;;;;21.00;14.75;;;7.40;83.80;;;;;;5007516;28;20103;-55
2022/04/18 02:11:58;;;;;;;20.80;14.88;;;7.30;83.90;;;;;;5006642;28;20132;-54
2022/04/18 02:14:32;;;;;;;23.23;16.15;;;7.40;82.60;;;;;;5006579;28;20127;-55
2022/04/18 02:16:59;;;;;;;20.58;14.00;;;7.30;82.80;;;;;;5005854;28;20136;-58
2022/04/18 02:19:25;;;;;;;17.70;14.38;;;7.30;83.30;;;;;;5006909;28;20580;-55
2022/04/18 02:21:51;;;;;;;17.85;15.23;;;7.30;83.80;;;;;;5019506;28;20045;-56
2022/04/18 02:24:17;;;;;;;18.08;14.43;;;7.20;83.50;;;;;;5022197;28;20245;-55
2022/04/18 02:26:43;;;;;;;19.13;13.88;;;7.20;84.40;;;;;;4982403;28;20055;-56
2022/04/18 02:29:12;;;;;;;20.52;14.73;;;7.20;86.00;;;;;;5016215;28;20049;-57
2022/04/18 02:34:24;;;;;;;19.42;15.05;;;7.10;87.60;;;;;;5024020;28;20053;-57
2022/04/18 02:36:51;;;;;;;19.83;14.65;;;7.10;88.70;;;;;;5021372;28;20045;-57
2022/04/18 02:39:19;;;;;;;20.25;15.93;;;7.00;90.10;;;;;;5006626;28;20064;-57
2022/04/18 02:41:46;;;;;;;19.15;14.40;;;7.00;91.00;;;;;;5020669;28;22096;-56
2022/04/18 02:44:12;;;;;;;16.30;14.57;;;7.00;91.70;;;;;;4990506;28;20057;-57
2022/04/18 02:46:38;;;;;;;18.40;14.23;;;6.80;92.40;;;;;;5021770;28;20045;-56
2022/04/18 02:49:05;;;;;;;17.67;14.60;;;6.80;92.90;;;;;;5021714;28;20069;-56
2022/04/18 02:51:31;;;;;;;18.20;14.98;;;6.80;93.00;;;;;;5004071;28;20061;-57
2022/04/18 02:54:04;;;;;;;18.52;14.80;;;6.80;93.80;;;;;;5007468;28;20049;-56
2022/04/18 02:56:33;;;;;;;16.95;14.95;;;6.70;94.50;;;;;;5024334;28;20053;-56
2022/04/18 02:58:59;;;;;;;19.80;14.45;;;6.70;95.30;;;;;;4982438;28;20644;-56
2022/04/18 03:01:25;;;;;;;17.80;14.65;;;6.70;94.30;;;;;;5021437;28;20053;-56
2022/04/18 03:03:55;;;;;;;18.55;14.85;;;6.70;94.70;;;;;;5005514;28;20048;-56
2022/04/18 03:06:22;;;;;;;17.52;14.57;;;6.70;94.80;;;;;;5018921;28;20057;-54
2022/04/18 03:08:48;;;;;;;17.08;13.80;;;6.70;95.70;;;;;;5019044;28;20124;-54
2022/04/18 03:11:14;;;;;;;17.95;14.95;;;6.70;96.10;;;;;;5024236;28;20523;-56
2022/04/18 03:13:44;;;;;;;19.02;14.52;;;6.70;96.60;;;;;;5022303;28;20740;-56
2022/04/18 03:16:20;;;;;;;19.52;15.57;;;6.60;96.50;;;;;;5018417;28;20469;-56
2022/04/18 03:18:47;;;;;;;21.30;14.77;;;6.60;96.90;;;;;;5002930;28;20061;-56
2022/04/18 03:21:13;;;;;;;16.40;13.77;;;6.60;96.70;;;;;;5019262;28;20091;-56
2022/04/18 03:23:39;;;;;;;15.77;13.35;;;6.60;96.50;;;;;;5005001;28;20065;-56
2022/04/18 03:26:08;;;;;;;19.98;14.63;;;6.60;97.40;;;;;;5021180;28;20040;-56
2022/04/18 03:28:50;;;;;;;17.60;14.75;;;6.60;97.10;;;;;;5018470;28;20111;-57
2022/04/18 03:31:16;;;;;;;18.55;14.27;;;6.50;96.80;;;;;;5002626;28;20115;-56
2022/04/18 03:33:42;;;;;;;17.83;13.30;;;6.50;96.80;;;;;;5019078;28;20061;-56
2022/04/18 03:41:42;;;;;;;18.80;14.40;;;6.50;97.50;;;;;;5018961;28;20061;-56
2022/04/18 03:44:09;;;;;;;17.05;14.20;;;6.40;98.30;;;;;;5007056;28;20404;-56
2022/04/18 03:46:35;;;;;;;21.70;13.40;;;6.40;98.70;;;;;;5016491;28;20104;-55
2022/04/18 03:49:01;;;;;;;22.77;15.20;;;6.40;99.50;;;;;;5001871;28;20056;-55
2022/04/18 03:51:28;;;;;;;21.80;14.82;;;6.40;99.50;;;;;;5022540;28;20888;-56
2022/04/18 03:53:54;;;;;;;19.20;14.38;;;6.40;99.90;;;;;;5021483;28;20469;-56
2022/04/18 03:56:23;;;;;;;17.83;13.90;;;6.40;99.90;;;;;;5004838;28;20048;-56
2022/04/18 03:59:07;;;;;;;20.27;14.95;;;6.30;99.90;;;;;;5022801;28;20053;-56
2022/04/18 04:01:43;;;;;;;17.48;14.23;;;6.30;99.90;;;;;;5002753;28;20186;-56
2022/04/18 04:04:10;;;;;;;19.13;14.48;;;6.30;99.90;;;;;;5002824;28;20760;-56
2022/04/18 04:06:36;;;;;;;17.65;13.70;;;6.30;99.90;;;;;;5019361;28;20064;-56
2022/04/18 04:09:03;;;;;;;19.55;13.93;;;6.20;99.90;;;;;;5018094;28;20587;-56
2022/04/18 04:11:33;;;;;;;18.17;14.07;;;6.20;99.90;;;;;;5021286;28;20120;-57
2022/04/18 04:13:59;;;;;;;18.45;14.32;;;6.20;99.90;;;;;;4987619;28;20110;-56
2022/04/18 04:16:26;;;;;;;17.80;14.20;;;6.20;99.90;;;;;;5003301;28;20523;-56
2022/04/18 04:18:55;;;;;;;19.33;14.18;;;6.20;99.90;;;;;;5004043;28;20061;-56
2022/04/18 04:21:21;;;;;;;15.75;13.38;;;6.10;99.90;;;;;;5004896;28;20099;-56
2022/04/18 04:23:47;;;;;;;16.98;13.57;;;6.10;99.90;;;;;;5017916;28;20467;-55
2022/04/18 04:26:25;;;;;;;14.77;12.98;;;6.10;99.90;;;;;;5018447;28;20045;-57
2022/04/18 04:28:53;;;;;;;16.48;13.63;;;6.10;99.90;;;;;;4987909;28;20049;-56
2022/04/18 04:31:26;;;;;;;19.50;14.32;;;6.00;99.90;;;;;;5003819;28;20562;-56
2022/04/18 04:33:54;;;;;;;17.48;13.50;;;6.00;99.90;;;;;;5002148;28;20052;-56
2022/04/18 04:36:20;;;;;;;17.10;12.68;;;6.00;99.90;;;;;;4981183;28;20053;-56
2022/04/18 04:38:47;;;;;;;17.50;13.65;;;6.00;99.90;;;;;;5014570;28;20045;-56
2022/04/18 04:41:19;;;;;;;15.57;13.23;;;6.10;99.90;;;;;;5015421;28;20041;-57
2022/04/18 04:43:53;;;;;;;19.35;14.18;;;6.00;99.90;;;;;;5013631;28;20057;-56
2022/04/18 04:46:27;;;;;;;16.05;12.95;;;6.00;99.90;;;;;;4995613;28;20107;-56
2022/04/18 04:49:02;;;;;;;18.77;12.98;;;6.10;99.90;;;;;;5015673;28;20052;-56
2022/04/18 04:51:28;;;;;;;16.83;13.80;;;6.00;99.90;;;;;;5014743;28;20058;-56
2022/04/18 04:53:54;;;;;;;16.63;13.52;;;6.00;99.90;;;;;;4996376;28;20053;-56
2022/04/18 04:56:29;;;;;;;16.90;13.40;;;6.10;99.90;;;;;;5017161;28;20093;-56
2022/04/18 04:58:57;;;;;;;15.98;13.25;;;6.10;99.90;;;;;;5015235;28;20421;-57
2022/04/18 05:01:25;;;;;;;16.15;12.48;;;6.10;99.90;;;;;;4999590;28;20083;-57
2022/04/18 05:03:54;;;;;;;16.55;13.50;;;6.10;99.90;;;;;;4997023;28;20042;-56
2022/04/18 05:06:22;;;;;;;16.38;13.25;;;6.20;99.90;;;;;;4995464;28;20647;-55
2022/04/18 05:08:48;;;;;;;16.98;13.77;;;6.20;99.90;;;;;;5014406;28;20052;-56
2022/04/18 05:11:15;;;;;;;16.27;13.77;;;6.20;99.90;;;;;;4996657;28;20080;-56
2022/04/18 05:13:50;;;;;;;16.27;12.85;;;6.20;99.90;;;;;;4996338;28;20053;-55
2022/04/18 05:16:19;;;;;;;15.38;12.77;;;6.20;99.90;;;;;;4995634;28;20057;-56
2022/04/18 05:18:53;;;;;;;18.73;12.57;;;6.20;99.90;;;;;;4981174;28;20129;-56
2022/04/18 05:21:19;;;;;;;15.70;11.95;;;6.40;99.90;;;;;;5014453;28;20140;-57
2022/04/18 05:23:48;;;;;;;17.13;12.80;;;6.50;99.90;;;;;;4997482;28;20514;-56
2022/04/18 05:26:15;;;;;;;18.10;13.13;;;6.60;99.90;;;;;;5009513;28;20049;-56
2022/04/18 05:28:42;;;;;;;14.88;12.68;;;6.60;99.90;;;;;;5028419;28;20622;-56
2022/04/18 05:31:10;;;;;;;18.05;12.77;;;6.70;99.90;;;;;;5014018;28;20053;-56
2022/04/18 05:33:38;;;;;;;13.73;12.32;;;6.80;99.90;;;;;;4982231;28;20087;-56
2022/04/18 05:36:30;;;;;;;;;;;6.80;99.90;;;;;;5011025;28;20049;-56
2022/04/18 05:38:58;;;;;;;14.50;12.98;;;6.90;99.90;;;;;;5012423;28;20059;-56
2022/04/18 05:41:34;;;;;;;14.48;12.18;;;7.00;99.90;;;;;;5000030;28;20571;-57
2022/04/18 05:44:01;;;;;;;15.98;12.05;;;7.20;99.90;;;;;;5027948;28;20072;-57
2022/04/18 05:46:34;;;;;;;15.75;12.27;;;7.30;99.90;;;;;;5004025;28;20053;-54
2022/04/18 05:49:01;;;;;;;17.98;11.98;;;7.50;99.90;;;;;;5022798;28;20230;-56
2022/04/18 05:51:28;;;;;;;16.63;13.27;;;7.70;99.90;;;;;;5015804;28;20041;-56
2022/04/18 05:53:54;;;;;;;16.08;12.75;;;7.90;99.90;;;;;;4980233;28;20102;-57
2022/04/18 05:56:30;;;;;;;14.65;12.68;;;8.00;99.90;;;;;;5010487;28;20479;-56
2022/04/18 05:58:59;;;;;;;16.00;12.95;;;8.20;99.90;;;;;;5014774;28;20097;-56
2022/04/18 06:01:37;;;;;;;14.68;12.80;;;8.40;99.90;;;;;;5014097;28;20046;-56
2022/04/18 06:04:29;;;;;;;16.30;11.77;;;8.50;99.90;;;;;;5001910;28;20045;-57
2022/04/18 06:07:15;;;;;;;18.00;12.88;;;8.60;99.90;;;;;;5012792;28;20386;-57
2022/04/18 06:09:41;;;;;;;15.27;13.23;;;8.80;99.90;;;;;;4994289;28;20625;-57
2022/04/18 06:12:08;;;;;;;15.32;12.18;;;8.90;99.90;;;;;;4996674;28;20109;-57
2022/04/18 06:14:38;;;;;;;15.63;12.23;;;9.10;99.80;;;;;;5012842;28;20556;-57
2022/04/18 06:17:05;;;;;;;13.68;12.27;;;9.20;98.30;;;;;;5015071;28;20054;-57
2022/04/18 06:19:33;;;;;;;14.38;12.35;;;9.40;98.00;;;;;;5016891;28;20053;-56
2022/04/18 06:22:00;;;;;;;14.27;12.40;;;9.60;96.70;;;;;;4999343;28;20488;-56
2022/04/18 06:24:27;;;;;;;15.57;12.57;;;9.60;96.40;;;;;;4967989;28;20515;-56
2022/04/18 06:27:08;;;;;;;17.38;12.95;;;9.80;97.10;;;;;;5012908;28;20120;-57
2022/04/18 06:29:37;;;;;;;15.50;11.35;;;10.00;93.50;;;;;;4998866;28;20045;-57
2022/04/18 06:32:04;;;;;;;15.73;12.00;;;10.10;93.00;;;;;;4997230;28;20065;-57
2022/04/18 06:34:31;;;;;;;13.93;11.88;;;10.20;90.80;;;;;;4999032;28;20131;-56
2022/04/18 06:37:06;;;;;;;14.50;12.77;;;10.40;91.10;;;;;;4971492;28;20501;-57
2022/04/18 06:39:37;;;;;;;14.07;12.20;;;10.50;87.00;;;;;;5000848;28;20056;-57
2022/04/18 06:42:10;;;;;;;15.68;13.23;;;10.70;85.30;;;;;;5015192;28;20307;-57
2022/04/18 06:45:03;;;;;;;15.80;11.77;;;10.80;88.60;;;;;;5013304;28;20049;-57
2022/04/18 06:47:31;;;;;;;15.98;12.25;;;11.00;82.60;;;;;;5012596;28;20049;-55
2022/04/18 06:50:11;;;;;;;14.90;12.68;;;11.20;78.50;;;;;;4999226;28;20053;-57
2022/04/18 06:52:55;;;;;;;14.35;11.32;;;11.30;75.00;;;;;;5021700;28;20050;-57
2022/04/18 06:58:43;;;;;;;13.45;11.25;;;11.80;70.50;;;;;;5012768;28;20504;-57
2022/04/18 07:01:09;;;;;;;13.57;11.77;;;12.10;66.50;;;;;;4997363;28;20133;-56
2022/04/18 07:03:36;;;;;;;13.88;11.00;;;12.20;64.60;;;;;;5021624;28;20053;-56
2022/04/18 07:06:03;;;;;;;13.13;11.48;;;12.40;63.50;;;;;;5024157;28;20049;-57
2022/04/18 07:08:29;;;;;;;12.57;11.30;;;12.70;61.60;;;;;;5023978;28;20053;-57
2022/04/18 07:11:07;;;;;;;14.88;11.07;;;13.00;61.60;;;;;;5007588;28;20703;-57
2022/04/18 07:13:33;;;;;;;11.88;10.02;;;13.10;57.70;;;;;;4986439;28;20096;-56
2022/04/18 07:16:00;;;;;;;13.23;10.05;;;13.20;56.20;;;;;;5001134;28;20398;-58
2022/04/18 07:18:26;;;;;;;12.90;10.93;;;13.40;55.10;;;;;;4987872;28;20516;-56
2022/04/18 07:20:53;;;;;;;13.43;10.80;;;13.50;54.30;;;;;;5023418;28;20084;-57
2022/04/18 07:23:19;;;;;;;14.73;10.77;;;13.70;54.60;;;;;;5023948;28;20400;-56
2022/04/18 07:25:55;;;;;;;12.77;10.43;;;13.80;53.60;;;;;;5023667;28;20691;-57
2022/04/18 07:28:32;;;;;;;12.48;10.45;;;14.20;53.20;;;;;;5022540;28;20524;-56
2022/04/18 07:30:59;;;;;;;12.93;9.23;;;14.40;51.60;;;;;;5000054;28;20093;-56
2022/04/18 07:33:25;;;;;;;13.10;10.20;;;14.70;50.40;;;;;;5013645;28;20038;-56
2022/04/18 07:35:52;;;;;;;11.98;10.43;;;15.00;50.10;;;;;;5009134;28;20057;-56
2022/04/18 07:41:40;;;;;;;12.45;9.43;;;15.30;49.20;;;;;;5019834;28;20060;-56
2022/04/18 07:44:07;;;;;;;12.18;9.43;;;15.40;47.10;;;;;;5019994;28;20045;-55
2022/04/18 07:46:34;;;;;;;13.55;9.70;;;15.60;47.50;;;;;;5005920;28;20049;-55
2022/04/18 07:49:03;;;;;;;12.35;9.45;;;15.80;46.70;;;;;;5006417;28;20049;-55
2022/04/18 07:51:40;;;;;;;12.23;9.45;;;15.80;47.60;;;;;;5013831;28;20137;-56
2022/04/18 07:54:23;;;;;;;10.32;9.13;;;15.70;46.20;;;;;;5015425;28;20049;-55
2022/04/18 07:56:50;;;;;;;9.80;8.65;;;15.90;47.00;;;;;;5014050;28;20041;-55
2022/04/18 07:59:21;;;;;;;9.98;8.30;;;16.10;46.40;;;;;;4991340;28;20054;-54
2022/04/18 08:01:47;;;;;;;10.40;8.68;;;16.40;46.90;;;;;;5034557;28;20138;-57
2022/04/18 08:04:27;;;;;;;13.43;9.82;;;16.50;45.50;;;;;;5002906;28;20604;-57
2022/04/18 08:06:53;;;;;;;11.98;9.20;;;16.60;44.70;;;;;;5024032;28;20721;-57
2022/04/18 08:09:22;;;;;;;11.75;8.15;;;16.70;44.10;;;;;;5020469;28;20100;-57
2022/04/18 08:11:49;;;;;;;10.75;8.85;;;17.00;44.00;;;;;;4983716;28;20053;-57
2022/04/18 08:14:23;;;;;;;10.95;9.48;;;17.00;43.50;;;;;;5042109;28;20061;-55
2022/04/18 08:16:53;;;;;;;11.80;9.20;;;17.10;43.40;;;;;;5021962;28;20202;-54
2022/04/18 08:19:39;;;;;;;10.05;8.73;;;16.90;42.80;;;;;;5018000;28;20128;-56
2022/04/18 08:22:05;;;;;;;11.65;9.27;;;17.20;43.40;;;;;;4988595;28;20053;-55
2022/04/18 08:24:37;;;;;;;12.75;8.50;;;17.50;44.40;;;;;;4977793;28;20416;-57
2022/04/18 08:27:41;;;;;;;11.88;8.85;;;17.90;44.00;;;;;;5025114;28;20050;-58
2022/04/18 08:30:13;;;;;;;14.52;11.77;;;17.80;42.50;;;;;;5021152;28;20053;-57
2022/04/18 08:32:54;;;;;;;15.13;13.48;;;18.40;42.10;;;;;;5021793;28;20057;-57
2022/04/18 08:35:20;;;;;;;13.13;11.05;;;18.80;41.90;;;;;;5022360;28;20855;-57
2022/04/18 08:37:48;;;;;;;10.68;8.60;;;19.00;41.40;;;;;;5009171;28;20080;-57
2022/04/18 08:40:14;;;;;;;13.05;10.25;;;19.50;41.80;;;;;;5018702;28;20049;-59
2022/04/18 08:42:42;;;;;;;13.70;9.82;;;19.50;39.80;;;;;;4984884;28;20049;-60
2022/04/18 08:45:11;;;;;;;15.18;11.52;;;19.80;40.20;;;;;;5013223;28;20420;-59
2022/04/18 08:53:13;;;;;;;9.20;8.20;;;19.70;39.50;;;;;;4997179;28;20058;-58
2022/04/18 08:55:41;;;;;;;16.35;14.60;;;19.90;39.80;;;;;;5015425;28;20049;-58
2022/04/18 08:58:28;;;;;;;10.45;9.18;;;20.20;39.10;;;;;;5010429;28;20196;-57
2022/04/18 09:00:57;;;;;;;10.40;8.38;;;20.20;39.30;;;;;;5004834;28;20056;-58
2022/04/18 09:03:44;;;;;;;11.43;8.23;;;20.60;39.30;;;;;;5018555;28;20136;-57
2022/04/18 09:06:14;;;;;;;11.68;8.10;;;20.90;39.10;;;;;;5012767;28;20048;-58
2022/04/18 09:08:51;;;;;;;10.55;8.18;;;21.00;38.00;;;;;;5009090;28;20041;-58
2022/04/18 09:11:30;;;;;;;8.60;7.22;;;21.30;37.80;;;;;;4985879;28;20420;-58
2022/04/18 09:14:09;;;;;;;7.97;7.18;;;21.30;37.20;;;;;;5011513;28;20133;-57
2022/04/18 09:16:36;;;;;;;10.50;7.68;;;21.60;36.30;;;;;;5010623;28;20104;-58
2022/04/18 09:19:10;;;;;;;9.30;6.95;;;21.40;37.00;;;;;;4994358;28;20057;-56
2022/04/18 09:21:57;;;;;;;8.63;7.35;;;21.50;36.50;;;;;;5013004;28;20042;-58
2022/04/18 09:24:34;;;;;;;7.97;7.15;;;21.50;35.60;;;;;;5020812;28;20037;-57
2022/04/18 09:27:27;;;;;;;10.25;8.13;;;21.50;36.80;;;;;;5002137;28;20053;-61
2022/04/18 09:30:05;;;;;;;9.23;7.32;;;21.30;35.70;;;;;;5015195;28;20513;-60
2022/04/18 09:32:33;;;;;;;11.75;7.95;;;21.20;36.20;;;;;;4991404;28;20486;-59
2022/04/18 09:35:25;;;;;;;9.45;7.63;;;21.30;36.50;;;;;;4975528;28;20107;-59
2022/04/18 09:37:58;;;;;;;9.50;7.68;;;21.40;36.60;;;;;;5007426;28;20050;-60
2022/04/18 09:40:50;;;;;;;9.27;8.25;;;21.70;36.50;;;;;;4995751;28;20054;-60
2022/04/18 09:43:22;;;;;;;11.07;7.60;;;21.70;35.80;;;;;;4995452;28;20839;-60
2022/04/18 09:45:51;;;;;;;8.30;7.43;;;21.60;35.40;;;;;;5003216;28;20053;-59
2022/04/18 09:48:21;;;;;;;11.00;7.53;;;21.60;36.10;;;;;;4995365;28;20392;-56
2022/04/18 09:51:01;;;;;;;10.23;8.00;;;21.80;36.00;;;;;;4969768;28;20053;-58
2022/04/18 09:53:44;;;;;;;9.15;8.20;;;21.80;34.80;;;;;;5007539;28;20072;-57
2022/04/18 09:56:15;;;;;;;8.60;7.43;;;22.30;35.80;;;;;;5015296;28;20076;-57
2022/04/18 09:58:42;;;;;;;8.00;7.20;;;22.00;35.60;;;;;;5012684;28;20057;-58
2022/04/18 10:01:09;;;;;;;8.18;7.20;;;22.40;35.90;;;;;;5007279;28;20064;-56
2022/04/18 10:03:37;;;;;;;9.18;8.00;;;22.90;34.90;;;;;;4974884;28;20049;-57
2022/04/18 10:06:04;;;;;;;10.43;7.53;;;22.80;34.90;;;;;;5023270;28;20091;-56
2022/04/18 10:08:31;;;;;;;9.73;7.28;;;23.20;34.90;;;;;;5021815;28;20520;-57
2022/04/18 10:11:00;;;;;;;10.07;7.78;;;23.20;33.90;;;;;;5015831;28;20046;-56
2022/04/18 10:13:27;;;;;;;8.43;7.45;;;23.60;33.90;;;;;;5014145;28;20104;-56
2022/04/18 10:15:55;;;;;;;8.25;7.35;;;23.40;32.80;;;;;;5012612;28;20057;-56
2022/04/18 10:18:23;;;;;;;10.52;6.75;;;24.00;33.30;;;;;;5023717;28;20053;-60
2022/04/18 10:21:06;;;;;;;10.63;6.82;;;24.30;32.80;;;;;;5014255;28;20116;-59
2022/04/18 10:23:47;;;;;;;7.65;6.60;;;24.30;32.10;;;;;;5009835;28;20523;-56
2022/04/18 10:26:43;;;;;;;9.23;7.05;;;24.20;31.30;;;;;;5010783;28;20045;-56
2022/04/18 10:29:20;;;;;;;7.95;6.50;;;24.10;31.00;;;;;;5012929;28;20045;-58
2022/04/18 10:31:48;;;;;;;8.68;6.07;;;24.30;31.90;;;;;;5011512;28;20042;-56
2022/04/18 10:34:15;;;;;;;9.75;7.00;;;24.30;31.60;;;;;;4997893;28;20060;-56
2022/04/18 10:36:50;;;;;;;9.75;6.20;;;24.60;31.60;;;;;;4992148;28;20061;-55
2022/04/18 10:39:17;;;;;;;8.23;6.18;;;24.70;29.80;;;;;;5007037;28;20614;-56
2022/04/18 10:41:44;;;;;;;9.55;6.00;;;25.00;30.90;;;;;;5012866;28;20576;-56
2022/04/18 10:44:15;;;;;;;9.63;5.38;;;25.00;31.10;;;;;;4999059;28;20049;-55
2022/04/18 10:47:00;;;;;;;6.95;4.32;;;25.10;30.80;;;;;;5005633;28;20048;-54
2022/04/18 10:49:31;;;;;;;7.75;4.78;;;25.10;30.00;;;;;;5021279;28;20043;-55
2022/04/18 10:52:08;;;;;;;8.18;5.07;;;25.10;29.80;;;;;;5016260;28;20045;-54
2022/04/18 10:54:35;;;;;;;16.15;14.30;;;25.20;28.80;;;;;;4996566;28;20038;-55
2022/04/18 10:57:11;;;;;;;9.60;7.45;;;25.10;28.60;;;;;;5009195;28;20056;-54
2022/04/18 10:59:42;;;;;;;27.60;24.77;;;25.20;28.70;;;;;;5013932;28;20513;-55
2022/04/18 11:02:30;;;;;;;5.75;4.32;;;25.30;28.60;;;;;;5005964;28;20049;-55
2022/04/18 11:04:56;;;;;;;4.50;3.40;;;25.40;27.40;;;;;;5010426;28;20046;-55
2022/04/18 11:07:40;;;;;;;5.90;3.55;;;25.50;27.70;;;;;;5013506;28;20053;-60
2022/04/18 11:10:20;;;;;;;6.03;5.43;;;25.50;26.20;;;;;;4994765;28;20600;-60
2022/04/18 11:12:47;;;;;;;5.80;4.47;;;25.60;27.30;;;;;;5019625;28;20053;-59
2022/04/18 11:15:13;;;;;;;5.85;3.60;;;25.60;28.00;;;;;;5015320;28;20052;-60
2022/04/18 11:17:41;;;;;;;5.72;3.78;;;25.70;27.40;;;;;;5013365;28;20048;-55
2022/04/18 11:20:33;;;;;;;5.50;4.05;;;25.90;26.90;;;;;;5007256;28;20045;-54
2022/04/18 11:23:14;;;;;;;7.10;4.20;;;25.80;27.40;;;;;;5017513;28;20053;-60
2022/04/18 11:25:58;;;;;;;4.63;3.40;;;25.90;28.60;;;;;;5009697;28;20041;-55
2022/04/18 11:28:39;;;;;;;7.57;4.70;;;26.40;26.80;;;;;;5012756;28;20131;-60
2022/04/18 11:31:09;;;;;;;;;;;26.30;27.90;;;;;;5013733;28;20044;-60
2022/04/18 11:33:42;;;;;;;6.32;4.15;;;25.60;26.40;;;;;;5012752;28;20619;-55
2022/04/18 11:36:10;;;;;;;6.85;4.57;;;25.90;27.20;;;;;;5012871;28;20049;-61
2022/04/18 11:38:36;;;;;;;5.15;3.85;;;25.80;27.60;;;;;;5014219;28;20056;-55
2022/04/18 11:41:15;;;;;;;6.30;4.35;;;26.20;27.30;;;;;;5011059;28;20057;-60
2022/04/18 11:43:41;;;;;;;7.03;4.15;;;25.70;26.20;;;;;;4978331;28;20084;-55
2022/04/18 11:46:09;;;;;;;6.25;4.97;;;25.90;27.10;;;;;;5009603;28;20049;-56
2022/04/18 11:48:36;;;;;;;15.13;13.60;;;25.90;27.20;;;;;;5010958;28;20049;-56
2022/04/18 11:51:03;;;;;;;17.75;15.85;;;26.00;27.00;;;;;;5012737;28;20050;-59
2022/04/18 11:53:33;;;;;;;7.55;5.90;;;25.90;27.40;;;;;;5012178;28;20080;-59
2022/04/18 11:56:04;;;;;;;5.95;4.82;;;26.20;28.00;;;;;;5010924;28;20045;-60
2022/04/18 11:58:35;;;;;;;6.07;4.53;;;25.90;26.90;;;;;;5003199;28;20523;-59
2022/04/18 12:06:45;;;;;;;6.18;5.38;;;25.70;28.10;;;;;;5006602;28;20049;-60
2022/04/18 12:09:13;;;;;;;5.72;5.15;;;25.70;27.90;;;;;;5008864;28;20818;-53
2022/04/18 12:11:40;;;;;;;17.15;15.25;;;25.50;27.50;;;;;;5009837;28;20059;-58
2022/04/18 12:14:06;;;;;;;7.07;6.25;;;25.80;27.70;;;;;;5012706;28;20077;-56
2022/04/18 12:16:37;;;;;;;6.15;5.55;;;25.80;27.00;;;;;;5013704;28;20037;-60
2022/04/18 12:19:05;;;;;;;7.82;6.68;;;25.90;26.70;;;;;;5015831;28;20046;-57
2022/04/18 12:21:31;;;;;;;6.60;4.70;;;25.90;27.90;;;;;;5009391;28;20107;-61
2022/04/18 12:23:59;;;;;;;9.50;6.85;;;26.20;28.10;;;;;;5008861;28;20056;-57
2022/04/18 12:26:30;;;;;;;7.10;5.25;;;26.20;27.70;;;;;;5006983;28;20108;-56
2022/04/18 12:29:07;;;;;;;9.80;8.23;;;26.00;26.10;;;;;;5007753;28;20532;-55
2022/04/18 12:31:37;;;;;;;11.82;10.13;;;26.60;26.70;;;;;;5010210;28;20045;-57
2022/04/18 12:34:03;;;;;;;15.23;13.43;;;27.00;27.00;;;;;;5004168;28;20846;-60
2022/04/18 12:36:32;;;;;;;8.73;5.78;;;26.90;26.50;;;;;;5005241;28;20041;-61
2022/04/18 12:38:59;;;;;;;9.45;8.45;;;26.80;25.90;;;;;;4997548;28;20053;-57
2022/04/18 12:41:30;;;;;;;6.22;5.13;;;26.70;27.60;;;;;;4986696;28;20102;-57
2022/04/18 12:43:56;;;;;;;6.50;4.88;;;26.50;26.90;;;;;;5007648;28;20751;-55
2022/04/18 12:46:41;;;;;;;5.45;4.85;;;26.10;26.60;;;;;;5017321;28;20053;-55
2022/04/18 12:49:10;;;;;;;6.93;5.05;;;26.20;27.10;;;;;;5014572;28;20060;-62
2022/04/18 12:51:39;;;;;;;5.93;5.03;;;25.90;26.90;;;;;;5004790;28;20060;-62
2022/04/18 12:54:18;;;;;;;5.82;4.45;;;26.60;27.50;;;;;;5004032;28;20057;-62
2022/04/18 12:56:46;;;;;;;5.93;4.85;;;26.00;25.90;;;;;;5016768;28;20056;-62
2022/04/18 12:59:14;;;;;;;7.07;4.85;;;26.40;27.00;;;;;;5015567;28;20669;-61
2022/04/18 13:01:40;;;;;;;5.63;4.85;;;26.70;26.20;;;;;;5005032;28;20053;-62
2022/04/18 13:04:26;;;;;;;6.18;4.97;;;27.30;26.20;;;;;;5011117;28;20124;-61
2022/04/18 13:06:59;;;;;;;6.28;4.93;;;27.90;25.60;;;;;;5015362;28;20049;-60
2022/04/18 13:09:25;;;;;;;8.15;4.63;;;27.80;25.70;;;;;;4985827;28;20049;-60
2022/04/18 13:12:01;;;;;;;7.50;5.28;;;27.60;26.40;;;;;;5004230;28;20063;-61
2022/04/18 13:14:27;;;;;;;8.23;4.68;;;27.40;24.50;;;;;;5002339;28;20073;-61
2022/04/18 13:17:13;;;;;;;7.18;5.70;;;27.20;26.00;;;;;;5009565;28;20121;-61
2022/04/18 13:19:39;;;;;;;6.07;5.07;;;27.10;25.10;;;;;;5019388;28;20045;-61
2022/04/18 13:22:06;;;;;;;11.25;5.68;;;27.10;26.00;;;;;;5022953;28;20099;-60
2022/04/18 13:24:33;;;;;;;7.15;5.57;;;27.50;26.20;;;;;;5013073;28;20096;-61
2022/04/18 13:26:59;;;;;;;6.03;5.07;;;27.90;26.10;;;;;;5009287;28;20064;-61